MC SHIMLA BLOCK LEVEL FORECAST
DISTRICT BILASPUR
Block Bilaspur
Forecast Date RAIN  (mm) TEMPERATURE HUMIDITY WIND CloudCover(octa)
Max(0C) Min(0C) 0830(%) 1730(%) Speed(kmph) Direction(0)
25-11-2021 0.0 23.4 6.1 36 17 7 70 0
26-11-2021 0.0 23.4 6.1 36 16 8 68 0
27-11-2021 0.0 23.3 6.0 38 16 7 65 0
28-11-2021 0.0 22.2 5.0 38 18 8 68 0
29-11-2021 0.0 22.3 5.1 34 12 8 68 0
Block Ghumarwin
Forecast Date RAIN  (mm) TEMPERATURE HUMIDITY WIND CloudCover(octa)
Max(0C) Min(0C) 0830(%) 1730(%) Speed(kmph) Direction(0)
25-11-2021 0.0 25.3 8.1 36 17 7 70 0
26-11-2021 0.0 25.4 8.0 36 16 8 68 0
27-11-2021 0.0 25.2 7.9 38 16 7 65 0
28-11-2021 0.0 24.1 6.9 38 18 7 68 0
29-11-2021 0.0 24.3 7.0 34 12 8 68 0
Block Jhanduta
Forecast Date RAIN  (mm) TEMPERATURE HUMIDITY WIND CloudCover(octa)
Max(0C) Min(0C) 0830(%) 1730(%) Speed(kmph) Direction(0)
25-11-2021 0.0 22.3 5.1 36 17 7 70 0
26-11-2021 0.0 22.4 5.1 36 16 8 68 0
27-11-2021 0.0 22.3 5.0 38 16 7 65 0
28-11-2021 0.0 21.2 4.0 38 18 7 68 0
29-11-2021 0.0 21.4 4.1 34 12 8 68 0
Block Shree Naina Devi
Forecast Date RAIN  (mm) TEMPERATURE HUMIDITY WIND CloudCover(octa)
Max(0C) Min(0C) 0830(%) 1730(%) Speed(kmph) Direction(0)
25-11-2021 0.0 20.4 3.2 36 17 7 70 0
26-11-2021 0.0 20.5 3.2 36 16 8 68 0
27-11-2021 0.0 20.4 3.1 38 16 7 65 0
28-11-2021 0.0 19.4 2.1 38 18 7 68 0
29-11-2021 0.0 19.5 2.2 34 12 8 66 0